Springfield, Ohio
Current Conditions -  °F | °C
As of 9:39 PM on Tuesday 21 Oct 2014 (Local Time) from KSGH Reporting Station
Overcast Overcast  
Wind Chill: 41°   Ceiling: 2800
Heat Index: 46°   Visibility: 10mi
Dew Point: 37°   Wind: 13mph
Humidity: 71%   Direction: 350°N
Pressure: 30.18"   Gusts: NA
Location:  39.93°N, 83.81°W
Report Text: KSGH 220139Z AUTO 35011KT 10SM OVC028 08/03 A3018 RMK AO2
Loading
Personal Weather Stations






























Interactive Weather Map
Tropical Storm Tracking
New forecast layout! Learn more

10-Day Weather Forecast

Advertisements
Track Severe Weather on mobile